Time;durP1;ratioP1;P1;durP2;ratioP2;P2;SDS_P1;SDS_P2;PMS_P1;PMS_P2;Temp;Humidity;BMP_temperature;BMP_pressure;BME280_temperature;BME280_humidity;BME280_pressure;Samples;Min_cycle;Max_cycle;Signal;HPM_P1;HPM_P2
2024/02/14 00:02:44;;;;;;;22.90;11.30;;;;;;;7.17;56.43;99525.69;232141;198;151484;-60
2024/02/14 00:07:47;;;;;;;21.10;11.60;;;;;;;7.16;56.79;99526.79;231924;204;137436;-60
2024/02/14 00:12:51;;;;;;;19.40;10.80;;;;;;;7.12;56.99;99523.08;232257;204;138299;-61
2024/02/14 00:17:54;;;;;;;23.70;10.80;;;;;;;7.06;57.20;99530.00;232273;197;151280;-59
2024/02/14 00:22:58;;;;;;;20.60;12.50;;;;;;;7.03;57.33;99536.12;232273;204;137551;-61
2024/02/14 00:28:01;;;;;;;21.90;11.70;;;;;;;7.04;57.60;99537.50;232170;197;138330;-61
2024/02/14 00:33:04;;;;;;;24.70;12.30;;;;;;;7.01;57.79;99551.56;232263;202;152666;-61
2024/02/14 00:38:08;;;;;;;24.40;13.60;;;;;;;6.92;58.30;99554.71;232296;204;141666;-61
2024/02/14 00:43:11;;;;;;;26.30;13.90;;;;;;;6.91;58.53;99557.80;232210;201;136923;-61
2024/02/14 00:48:14;;;;;;;22.20;13.50;;;;;;;6.94;58.85;99557.84;232215;197;151680;-61
2024/02/14 00:53:18;;;;;;;24.60;15.00;;;;;;;6.91;59.06;99561.12;232231;197;137986;-61
2024/02/14 00:58:21;;;;;;;26.50;15.30;;;;;;;6.88;59.21;99565.10;232219;198;137157;-61
2024/02/14 01:03:25;;;;;;;27.60;16.20;;;;;;;6.83;59.52;99564.40;232378;198;151982;-60
2024/02/14 01:08:28;;;;;;;32.50;18.90;;;;;;;6.82;59.78;99564.80;232200;200;136997;-60
2024/02/14 01:13:31;;;;;;;32.60;19.00;;;;;;;6.78;59.99;99567.08;232321;204;138467;-60
2024/02/14 01:18:35;;;;;;;32.10;18.70;;;;;;;6.77;60.15;99565.51;232218;201;151447;-61
2024/02/14 01:23:39;;;;;;;36.40;20.40;;;;;;;6.76;60.36;99564.70;232123;197;137780;-60
2024/02/14 01:28:44;;;;;;;32.20;19.50;;;;;;;6.77;60.56;99565.34;232367;204;139691;-61
2024/02/14 01:33:48;;;;;;;37.30;20.20;;;;;;;6.79;60.62;99567.20;232336;204;152467;-60
2024/02/14 01:38:51;;;;;;;37.50;20.90;;;;;;;6.77;60.74;99564.97;232099;198;139988;-59
2024/02/14 01:43:54;;;;;;;39.00;21.30;;;;;;;6.72;60.93;99565.88;232076;204;137326;-60
2024/02/14 01:48:57;;;;;;;33.60;20.60;;;;;;;6.68;60.97;99566.39;232056;198;151402;-60
2024/02/14 01:54:02;;;;;;;38.90;22.20;;;;;;;6.64;61.36;99565.30;232199;204;137373;-61
2024/02/14 01:59:07;;;;;;;37.50;20.60;;;;;;;6.63;61.36;99563.91;232190;198;137759;-60
2024/02/14 02:04:11;;;;;;;35.10;20.90;;;;;;;6.60;61.62;99563.33;232434;205;151869;-56
2024/02/14 02:09:14;;;;;;;35.60;21.30;;;;;;;6.56;61.77;99558.89;232144;201;138227;-59
2024/02/14 02:14:17;;;;;;;40.60;22.10;;;;;;;6.55;61.74;99558.24;232159;205;137679;-60
2024/02/14 02:19:21;;;;;;;38.70;22.40;;;;;;;6.55;61.84;99558.59;232054;204;151868;-60
2024/02/14 02:24:24;;;;;;;40.60;22.40;;;;;;;6.48;62.01;99560.80;232239;201;137847;-61
2024/02/14 02:29:27;;;;;;;37.70;20.70;;;;;;;6.41;62.30;99560.34;232159;201;137571;-62
2024/02/14 02:34:31;;;;;;;34.70;20.90;;;;;;;6.35;62.23;99560.92;232180;204;151159;-60
2024/02/14 02:39:35;;;;;;;37.20;21.10;;;;;;;6.32;62.34;99561.38;232339;204;140453;-61
2024/02/14 02:44:39;;;;;;;38.60;21.60;;;;;;;6.34;62.40;99559.70;232223;204;137121;-60
2024/02/14 02:49:44;;;;;;;37.00;20.30;;;;;;;6.35;62.38;99565.14;232250;197;151746;-61
2024/02/14 02:54:47;;;;;;;41.50;20.90;;;;;;;6.37;62.28;99563.33;232035;201;136930;-60
2024/02/14 02:59:50;;;;;;;38.30;20.50;;;;;;;6.37;62.14;99566.83;232269;204;137563;-60
2024/02/14 03:04:54;;;;;;;36.50;21.40;;;;;;;6.33;62.29;99570.33;232297;202;151329;-61
2024/02/14 03:09:57;;;;;;;35.30;21.30;;;;;;;6.31;62.37;99572.50;232214;204;137855;-60
2024/02/14 03:15:04;;;;;;;37.70;23.40;;;;;;;6.31;62.58;99578.51;232142;202;140231;-63
2024/02/14 03:20:14;;;;;;;38.30;22.00;;;;;;;6.32;62.56;99579.16;232158;202;151349;-62
2024/02/14 03:25:20;;;;;;;33.90;20.80;;;;;;;6.31;62.47;99585.19;232084;197;137194;-63
2024/02/14 03:30:23;;;;;;;35.20;19.90;;;;;;;6.34;62.25;99585.24;232184;196;137463;-63
2024/02/14 03:35:26;;;;;;;36.20;20.50;;;;;;;6.31;62.16;99588.38;232239;202;151971;-63
2024/02/14 03:40:30;;;;;;;33.80;20.20;;;;;;;6.29;62.20;99589.86;232151;198;136892;-63
2024/02/14 03:45:33;;;;;;;34.30;20.40;;;;;;;6.29;62.24;99594.98;232438;197;140225;-63
2024/02/14 03:50:38;;;;;;;34.30;19.90;;;;;;;6.30;62.18;99598.81;232121;204;151444;-63
2024/02/14 03:55:42;;;;;;;40.50;21.80;;;;;;;6.30;62.27;99604.09;231925;197;138430;-63
2024/02/14 04:00:48;;;;;;;30.00;19.50;;;;;;;6.23;62.56;99601.16;232209;204;139273;-63
2024/02/14 04:05:51;;;;;;;42.50;21.70;;;;;;;6.26;62.53;99594.38;232246;197;151175;-63
2024/02/14 04:10:55;;;;;;;32.30;20.50;;;;;;;6.23;62.71;99603.98;232197;201;138137;-62
2024/02/14 04:15:58;;;;;;;34.90;20.80;;;;;;;6.24;62.90;99605.35;232230;204;136953;-62
2024/02/14 04:21:03;;;;;;;38.60;21.50;;;;;;;6.29;62.75;99606.25;232179;198;153247;-61
2024/02/14 04:26:08;;;;;;;35.50;20.60;;;;;;;6.29;62.71;99606.56;232137;196;137335;-62
2024/02/14 04:31:11;;;;;;;33.00;19.90;;;;;;;6.33;62.76;99609.64;232095;197;137802;-62
2024/02/14 04:36:14;;;;;;;31.10;19.50;;;;;;;6.32;62.71;99614.76;232127;198;152968;-61
2024/02/14 04:41:18;;;;;;;36.10;19.80;;;;;;;6.33;62.77;99616.47;231981;197;136627;-61
2024/02/14 04:46:22;;;;;;;32.70;19.30;;;;;;;6.33;62.76;99614.73;232210;204;136982;-59
2024/02/14 04:51:26;;;;;;;33.90;20.50;;;;;;;6.35;62.92;99610.80;232286;204;152840;-59
2024/02/14 04:56:29;;;;;;;35.20;20.90;;;;;;;6.33;62.97;99611.57;231995;198;136971;-59
2024/02/14 05:01:32;;;;;;;42.30;21.30;;;;;;;6.32;62.86;99615.27;232113;198;138723;-59
2024/02/14 05:06:36;;;;;;;36.40;20.80;;;;;;;6.31;63.12;99612.86;232198;204;151142;-59
2024/02/14 05:11:39;;;;;;;35.50;22.00;;;;;;;6.30;63.14;99616.42;232051;202;137803;-59
2024/02/14 05:16:43;;;;;;;35.00;21.60;;;;;;;6.29;63.12;99625.27;232179;204;137657;-60
2024/02/14 05:21:46;;;;;;;38.90;21.80;;;;;;;6.27;63.25;99625.17;232371;201;152853;-60
2024/02/14 05:26:52;;;;;;;35.70;21.30;;;;;;;6.22;63.34;99631.31;232114;197;137586;-60
2024/02/14 05:31:55;;;;;;;35.00;20.60;;;;;;;6.20;63.24;99630.34;232022;198;137597;-60
2024/02/14 05:36:58;;;;;;;40.50;21.50;;;;;;;6.17;63.17;99630.44;231908;202;152501;-61
2024/02/14 05:42:04;;;;;;;36.10;21.10;;;;;;;6.14;63.29;99633.92;232164;197;137453;-61
2024/02/14 05:47:08;;;;;;;39.40;22.10;;;;;;;6.10;63.54;99638.95;232267;201;137692;-62
2024/02/14 05:52:11;;;;;;;40.00;22.20;;;;;;;6.08;63.66;99640.44;232347;197;152319;-61
2024/02/14 05:57:14;;;;;;;39.30;22.50;;;;;;;6.09;63.58;99645.36;232105;198;138086;-61
2024/02/14 06:02:18;;;;;;;42.40;22.60;;;;;;;6.07;63.77;99647.02;232041;201;138800;-61
2024/02/14 06:07:21;;;;;;;38.20;23.50;;;;;;;6.09;63.85;99653.80;232111;202;152786;-60
2024/02/14 06:12:24;;;;;;;377.50;291.80;;;;;;;6.13;64.30;99655.25;232137;198;137355;-60
2024/02/14 06:17:27;;;;;;;181.50;112.10;;;;;;;6.22;64.51;99655.30;232174;196;137761;-61
2024/02/14 06:22:32;;;;;;;129.40;86.30;;;;;;;6.24;64.37;99660.31;232075;204;152828;-61
2024/02/14 06:27:36;;;;;;;57.80;35.80;;;;;;;6.24;64.27;99657.70;232183;197;137711;-61
2024/02/14 06:32:39;;;;;;;46.90;26.40;;;;;;;6.21;64.11;99660.60;232034;204;137002;-60
2024/02/14 06:37:43;;;;;;;45.40;25.10;;;;;;;6.28;64.55;99664.24;231962;202;152127;-61
2024/02/14 06:42:59;;;;;;;49.90;26.00;;;;;;;6.29;63.97;99665.64;231956;198;136779;-60
2024/02/14 06:48:04;;;;;;;51.70;26.60;;;;;;;6.24;63.85;99669.69;232225;204;140425;-61
2024/02/14 06:53:08;;;;;;;58.00;29.50;;;;;;;6.16;63.99;99668.70;232164;198;151654;-60
2024/02/14 06:58:11;;;;;;;57.30;28.10;;;;;;;6.15;64.02;99666.98;232052;201;137599;-43
2024/02/14 07:03:14;;;;;;;59.60;32.50;;;;;;;6.13;64.66;99675.32;232137;198;138808;-58
2024/02/14 07:08:18;;;;;;;53.20;28.30;;;;;;;6.24;64.43;99671.98;232109;198;151137;-58
2024/02/14 07:13:21;;;;;;;48.50;29.30;;;;;;;6.26;64.14;99678.21;232140;201;140050;-59
2024/02/14 07:18:24;;;;;;;53.40;30.30;;;;;;;6.36;63.91;99681.05;232005;197;138703;-59
2024/02/14 07:23:28;;;;;;;487.00;332.30;;;;;;;6.48;64.09;99685.41;232142;197;151136;-60
2024/02/14 07:28:32;;;;;;;56.80;31.20;;;;;;;6.66;64.46;99685.32;232159;201;138230;-58
2024/02/14 07:33:36;;;;;;;55.20;29.90;;;;;;;6.74;63.64;99686.44;232184;197;137872;-59
2024/02/14 07:38:39;;;;;;;51.00;29.00;;;;;;;6.71;63.39;99683.36;232293;197;151610;-58
2024/02/14 07:43:43;;;;;;;44.70;22.70;;;;;;;6.76;63.34;99679.14;232280;204;137594;-62
2024/02/14 07:48:48;;;;;;;31.20;17.40;;;;;;;6.80;62.48;99674.73;232359;201;140065;-58
2024/02/14 07:53:52;;;;;;;30.40;16.90;;;;;;;6.93;61.82;99672.86;232240;197;152001;-59
2024/02/14 07:58:55;;;;;;;33.10;17.80;;;;;;;7.06;61.32;99673.09;232267;201;137107;-59
2024/02/14 08:03:59;;;;;;;137.20;100.10;;;;;;;7.20;61.52;99676.60;232249;204;136832;-59
2024/02/14 08:09:06;;;;;;;31.70;17.80;;;;;;;7.43;60.98;99680.84;232092;204;151705;-59
2024/02/14 08:14:11;;;;;;;30.80;17.70;;;;;;;7.44;59.81;99677.81;231950;204;137254;-59
2024/02/14 08:19:15;;;;;;;31.70;16.20;;;;;;;7.48;59.68;99675.91;232060;204;137708;-59
2024/02/14 08:24:19;;;;;;;26.70;16.30;;;;;;;7.55;59.32;99670.28;232182;204;151313;-59
2024/02/14 08:29:23;;;;;;;31.20;17.90;;;;;;;7.72;59.04;99666.79;232279;204;138002;-59
2024/02/14 08:34:26;;;;;;;31.10;16.80;;;;;;;7.84;58.68;99662.08;232309;200;139185;-59
2024/02/14 08:39:30;;;;;;;26.30;14.60;;;;;;;7.93;57.95;99664.69;232454;204;151418;-59
2024/02/14 08:44:35;;;;;;;23.60;13.00;;;;;;;8.01;57.69;99665.61;232272;197;139214;-59
2024/02/14 08:49:40;;;;;;;23.90;14.30;;;;;;;8.17;57.08;99663.34;232203;204;136968;-60
2024/02/14 08:54:44;;;;;;;23.20;11.90;;;;;;;8.27;57.05;99670.19;232274;204;152117;-59
2024/02/14 08:59:48;;;;;;;146.00;101.90;;;;;;;8.44;56.34;99671.27;232187;197;137139;-60
2024/02/14 09:04:51;;;;;;;28.10;13.80;;;;;;;8.61;55.82;99673.38;232295;201;138218;-59
2024/02/14 09:09:55;;;;;;;25.50;11.40;;;;;;;8.75;54.93;99663.16;232216;204;151167;-62
2024/02/14 09:14:58;;;;;;;18.70;9.60;;;;;;;8.83;53.81;99660.88;232199;197;137564;-62
2024/02/14 09:20:03;;;;;;;16.70;7.50;;;;;;;8.95;52.77;99656.95;232265;204;136744;-60
2024/02/14 09:25:08;;;;;;;15.40;7.60;;;;;;;8.96;51.50;99653.02;231967;198;151153;-62
2024/02/14 09:30:12;;;;;;;15.30;8.50;;;;;;;9.00;51.20;99650.05;231912;197;136563;-62
2024/02/14 09:35:30;;;;;;;24.60;13.40;;;;;;;9.27;51.64;99644.34;232115;196;138125;-61
2024/02/14 09:40:33;;;;;;;9.60;4.70;;;;;;;9.42;49.41;99648.94;232026;197;152888;-62
2024/02/14 09:45:39;;;;;;;5.40;2.10;;;;;;;9.39;47.86;99654.39;232157;198;137707;-62
2024/02/14 09:50:43;;;;;;;4.20;1.80;;;;;;;9.48;46.36;99653.98;232060;204;136594;-62
2024/02/14 09:55:46;;;;;;;5.60;2.70;;;;;;;9.58;45.75;99649.81;231828;205;151233;-63
2024/02/14 10:00:51;;;;;;;7.30;2.60;;;;;;;9.61;45.46;99652.32;232010;204;136746;-61
2024/02/14 10:05:54;;;;;;;118.40;87.10;;;;;;;9.68;45.23;99647.33;231848;204;136723;-62
2024/02/14 10:11:00;;;;;;;8.50;4.20;;;;;;;9.84;45.85;99638.21;232115;201;150143;-61
2024/02/14 10:16:08;;;;;;;8.60;3.10;;;;;;;10.05;45.10;99636.84;232225;201;137122;-63
2024/02/14 10:21:16;;;;;;;4.40;2.50;;;;;;;10.22;44.54;99638.30;232003;197;136697;-62
2024/02/14 10:26:20;;;;;;;4.90;3.00;;;;;;;10.40;44.66;99631.17;231840;203;152928;-62
2024/02/14 10:31:27;;;;;;;5.90;2.60;;;;;;;10.61;43.90;99627.63;232145;198;137100;-62
2024/02/14 10:36:34;;;;;;;7.10;2.70;;;;;;;10.80;43.59;99616.80;232124;197;138347;-62
2024/02/14 10:41:37;;;;;;;6.80;2.80;;;;;;;10.92;42.90;99619.18;232009;198;152602;-61
2024/02/14 10:46:41;;;;;;;223.80;149.50;;;;;;;11.22;45.24;99613.81;232100;204;136878;-62
2024/02/14 10:51:48;;;;;;;11.00;3.90;;;;;;;11.54;42.56;99612.19;232069;204;137419;-62
2024/02/14 10:56:54;;;;;;;6.10;3.10;;;;;;;11.70;42.16;99610.22;232026;204;151788;-62
2024/02/14 11:01:57;;;;;;;5.80;3.00;;;;;;;11.75;41.20;99604.41;232023;202;137675;-61
2024/02/14 11:07:02;;;;;;;12.90;3.20;;;;;;;11.85;41.08;99601.20;232105;204;138123;-62
2024/02/14 11:12:08;;;;;;;4.90;3.10;;;;;;;11.67;40.35;99601.50;232009;205;151905;-62
2024/02/14 11:17:14;;;;;;;9.00;3.80;;;;;;;11.73;41.22;99594.58;232048;201;137851;-62
2024/02/14 11:22:19;;;;;;;7.10;3.50;;;;;;;12.02;40.84;99586.39;232148;196;137830;-61
2024/02/14 11:27:22;;;;;;;11.90;3.40;;;;;;;12.23;40.28;99579.07;232074;198;152377;-62
2024/02/14 11:32:39;;;;;;;11.10;3.50;;;;;;;12.25;40.04;99567.17;231875;198;136961;-62
2024/02/14 11:37:42;;;;;;;4.60;2.60;;;;;;;12.40;39.58;99564.66;231884;204;138254;-61
2024/02/14 11:42:47;;;;;;;8.80;2.50;;;;;;;12.56;39.86;99559.44;232158;197;151118;-62
2024/02/14 11:47:51;;;;;;;6.80;2.60;;;;;;;12.74;39.29;99556.90;232167;203;137587;-61
2024/02/14 11:52:54;;;;;;;3.60;2.10;;;;;;;13.02;38.68;99548.33;232112;196;137576;-62
2024/02/14 11:57:58;;;;;;;4.40;2.30;;;;;;;13.29;37.74;99551.23;232133;198;152875;-62
2024/02/14 12:03:02;;;;;;;7.40;2.80;;;;;;;13.40;37.60;99547.11;232039;204;138746;-62
2024/02/14 12:08:06;;;;;;;8.20;2.40;;;;;;;13.59;37.46;99543.92;232102;202;137278;-62
2024/02/14 12:13:14;;;;;;;5.50;2.20;;;;;;;13.80;36.91;99539.66;231987;204;151880;-61
2024/02/14 12:18:21;;;;;;;4.40;2.10;;;;;;;13.88;36.13;99541.27;232088;201;137952;-62
2024/02/14 12:23:27;;;;;;;5.10;2.00;;;;;;;13.95;36.09;99534.94;231971;202;137652;-62
2024/02/14 12:28:31;;;;;;;3.00;1.90;;;;;;;14.11;35.83;99529.20;232036;196;152372;-62
2024/02/14 12:33:34;;;;;;;5.30;2.20;;;;;;;14.26;35.55;99531.35;232145;201;138084;-62
2024/02/14 12:38:38;;;;;;;5.30;1.80;;;;;;;14.26;34.58;99525.84;231982;201;138092;-62
2024/02/14 12:43:41;;;;;;;4.00;1.70;;;;;;;13.97;34.41;99523.52;231729;204;152896;-59
2024/02/14 12:48:44;;;;;;;5.30;2.30;;;;;;;14.06;34.58;99519.02;232025;204;137870;-59
2024/02/14 12:53:48;;;;;;;4.30;2.10;;;;;;;14.08;35.15;99517.08;232056;202;136750;-58
2024/02/14 12:58:51;;;;;;;4.30;2.40;;;;;;;14.18;35.26;99517.80;232117;204;151437;-60
2024/02/14 13:03:54;;;;;;;5.40;2.00;;;;;;;14.29;34.36;99518.33;232200;204;137662;-59
2024/02/14 13:08:58;;;;;;;6.30;1.90;;;;;;;14.37;34.32;99517.59;232001;198;138735;-60
2024/02/14 13:14:01;;;;;;;4.90;2.10;;;;;;;14.38;34.05;99519.12;231907;201;151287;-60
2024/02/14 13:19:04;;;;;;;4.60;2.20;;;;;;;14.29;33.91;99517.80;232013;205;137792;-59
2024/02/14 13:24:09;;;;;;;5.20;2.10;;;;;;;14.34;33.92;99518.84;231950;197;136700;-59
2024/02/14 13:29:12;;;;;;;4.30;2.20;;;;;;;14.30;33.65;99511.98;231918;202;151319;-59
2024/02/14 13:34:15;;;;;;;7.50;2.10;;;;;;;14.30;33.76;99509.28;232038;197;137598;-59
2024/02/14 13:39:19;;;;;;;3.40;2.20;;;;;;;14.36;33.17;99504.63;232127;198;137221;-59
2024/02/14 13:44:22;;;;;;;6.10;2.60;;;;;;;14.31;33.34;99504.39;232004;201;153407;-59
2024/02/14 13:49:26;;;;;;;3.70;2.00;;;;;;;14.23;33.66;99505.48;231936;204;137424;-60
2024/02/14 13:54:29;;;;;;;3.80;2.10;;;;;;;14.00;33.42;99496.55;231903;204;137960;-61
2024/02/14 13:59:33;;;;;;;4.30;2.40;;;;;;;13.69;33.50;99499.73;231903;198;152140;-61
2024/02/14 14:04:37;;;;;;;5.50;2.80;;;;;;;13.44;33.87;99496.59;231968;198;137245;-61
2024/02/14 14:09:41;;;;;;;4.40;2.50;;;;;;;13.09;34.05;99496.96;232165;198;138021;-61
2024/02/14 14:14:44;;;;;;;4.00;2.50;;;;;;;12.83;34.43;99499.85;232032;198;153016;-62
2024/02/14 14:19:48;;;;;;;5.30;2.60;;;;;;;12.73;34.78;99502.76;232012;197;137479;-61
2024/02/14 14:24:51;;;;;;;5.60;2.30;;;;;;;12.65;34.91;99502.77;231970;201;137390;-62
2024/02/14 14:29:58;;;;;;;6.60;3.40;;;;;;;12.58;35.45;99500.90;232094;204;152008;-61
2024/02/14 14:35:02;;;;;;;7.50;3.00;;;;;;;12.51;35.70;99501.70;232057;197;136656;-60
2024/02/14 14:40:07;;;;;;;5.90;3.10;;;;;;;12.41;35.20;99505.00;232205;204;137541;-61
2024/02/14 14:45:12;;;;;;;9.00;2.90;;;;;;;12.24;35.36;99501.42;231974;197;151419;-61
2024/02/14 14:50:18;;;;;;;4.90;3.10;;;;;;;12.12;35.67;99500.36;231816;198;137281;-60
2024/02/14 14:55:22;;;;;;;128.50;65.70;;;;;;;12.04;35.76;99499.94;231986;198;138551;-62
2024/02/14 15:00:26;;;;;;;10.80;5.20;;;;;;;11.96;36.38;99500.27;231963;197;152021;-58
2024/02/14 15:05:30;;;;;;;7.00;2.80;;;;;;;11.88;36.46;99497.41;232028;205;137331;-60
2024/02/14 15:10:34;;;;;;;6.00;3.00;;;;;;;11.82;36.55;99494.86;232051;202;137606;-59
2024/02/14 15:15:37;;;;;;;4.70;2.90;;;;;;;11.78;36.78;99500.80;232037;201;151603;-60
2024/02/14 15:20:41;;;;;;;5.60;3.00;;;;;;;11.74;37.17;99502.09;231997;204;140456;-59
2024/02/14 15:25:44;;;;;;;7.70;3.00;;;;;;;11.67;37.25;99503.20;232102;202;137534;-60
2024/02/14 15:36:14;;;;;;;7.70;3.40;;;;;;;11.57;37.64;99499.73;231985;204;136819;-60
2024/02/14 15:41:18;;;;;;;7.90;3.20;;;;;;;11.52;38.00;99498.59;232087;197;140512;-60
2024/02/14 15:46:22;;;;;;;10.80;3.60;;;;;;;11.49;38.35;99494.67;232024;201;153017;-61
2024/02/14 15:51:27;;;;;;;8.40;3.50;;;;;;;11.43;38.27;99493.77;232171;197;138008;-60
2024/02/14 15:56:30;;;;;;;18.40;4.00;;;;;;;11.37;39.05;99495.35;231858;205;138092;-60
2024/02/14 16:01:33;;;;;;;20.30;4.00;;;;;;;11.30;40.12;99493.28;231880;198;151975;-60
2024/02/14 16:06:37;;;;;;;10.60;3.80;;;;;;;11.23;39.85;99498.16;232006;204;137221;-62
2024/02/14 16:11:40;;;;;;;10.00;3.50;;;;;;;11.18;40.05;99500.21;232051;197;138489;-63
2024/02/14 16:16:44;;;;;;;9.60;3.10;;;;;;;11.19;39.53;99505.83;231934;197;152226;-63
2024/02/14 16:21:47;;;;;;;8.90;3.20;;;;;;;11.17;39.57;99510.91;232234;198;136656;-63
2024/02/14 16:27:03;;;;;;;10.00;3.40;;;;;;;11.09;40.20;99515.42;232128;197;136796;-63
2024/02/14 16:32:07;;;;;;;11.00;4.40;;;;;;;10.96;41.31;99517.79;232049;198;151601;-63
2024/02/14 16:37:16;;;;;;;11.30;4.10;;;;;;;10.78;41.86;99518.23;231965;204;138324;-63
2024/02/14 16:42:19;;;;;;;15.20;5.40;;;;;;;10.62;42.43;99518.45;232026;198;139435;-62
2024/02/14 16:47:25;;;;;;;23.60;5.20;;;;;;;10.44;42.59;99528.98;232253;197;151552;-62
2024/02/14 16:52:28;;;;;;;40.40;5.80;;;;;;;10.30;42.53;99526.85;232138;198;137949;-63
2024/02/14 16:57:31;;;;;;;30.30;6.00;;;;;;;10.16;44.17;99538.20;232241;200;139325;-61
2024/02/14 17:02:35;;;;;;;49.40;6.10;;;;;;;10.05;44.45;99540.20;232176;202;152042;-62
2024/02/14 17:07:38;;;;;;;42.20;5.50;;;;;;;9.96;44.67;99542.61;232135;204;137278;-62
2024/02/14 17:12:42;;;;;;;29.80;5.00;;;;;;;9.89;44.75;99544.42;232159;201;137775;-63
2024/02/14 17:17:46;;;;;;;32.00;5.20;;;;;;;9.81;45.11;99545.55;232347;204;151155;-62
2024/02/14 17:22:49;;;;;;;31.20;4.60;;;;;;;9.71;45.14;99551.89;232234;201;137602;-62
2024/02/14 17:27:52;;;;;;;34.40;6.30;;;;;;;9.59;45.77;99553.02;232090;204;136792;-63
2024/02/14 17:32:58;;;;;;;36.40;6.10;;;;;;;9.48;46.07;99554.80;232047;198;151456;-63
2024/02/14 17:38:02;;;;;;;36.40;6.30;;;;;;;9.39;46.72;99558.77;231949;204;264764;-63
2024/02/14 17:43:06;;;;;;;42.70;6.20;;;;;;;9.29;47.23;99553.08;232059;205;137479;-62
2024/02/14 17:48:09;;;;;;;48.90;7.30;;;;;;;9.16;47.77;99554.73;231833;198;151220;-62
2024/02/14 17:53:12;;;;;;;41.10;7.20;;;;;;;9.07;47.97;99555.21;232122;198;137252;-63
2024/02/14 17:58:16;;;;;;;33.00;7.20;;;;;;;8.98;48.35;99548.54;232297;198;138665;-63
2024/02/14 18:03:19;;;;;;;34.30;11.20;;;;;;;8.94;49.04;99545.02;231954;198;153180;-62
2024/02/14 18:08:22;;;;;;;36.20;9.80;;;;;;;8.90;49.45;99541.31;231853;205;138014;-63
2024/02/14 18:13:25;;;;;;;43.50;11.10;;;;;;;8.87;49.91;99545.34;231962;202;136933;-62
2024/02/14 18:18:29;;;;;;;38.10;10.10;;;;;;;8.85;50.13;99546.33;231933;198;151276;-62
2024/02/14 18:23:37;;;;;;;30.60;9.60;;;;;;;8.83;50.50;99552.07;232079;205;138149;-62
2024/02/14 18:28:40;;;;;;;28.20;10.10;;;;;;;8.77;50.91;99552.89;232126;201;136612;-62
2024/02/14 18:33:43;;;;;;;29.60;9.60;;;;;;;8.73;51.04;99544.55;232266;198;152203;-60
2024/02/14 18:38:46;;;;;;;28.40;11.20;;;;;;;8.71;51.30;99545.52;231996;201;137567;-60
2024/02/14 18:43:50;;;;;;;25.90;10.70;;;;;;;8.68;51.42;99549.20;232079;201;137569;-59
2024/02/14 18:48:53;;;;;;;29.40;11.70;;;;;;;8.66;52.00;99543.30;231841;205;151595;-61
2024/02/14 18:53:56;;;;;;;23.50;12.30;;;;;;;8.62;52.25;99542.41;232011;204;136714;-61
2024/02/14 18:59:00;;;;;;;18.90;9.70;;;;;;;8.60;52.78;99543.38;231827;204;136804;-60
2024/02/14 19:04:04;;;;;;;17.70;10.20;;;;;;;8.59;52.86;99537.98;232269;204;151440;-61
2024/02/14 19:09:11;;;;;;;21.60;11.80;;;;;;;8.57;53.39;99538.08;232143;201;136867;-60
2024/02/14 19:14:15;;;;;;;26.50;12.80;;;;;;;8.57;53.10;99543.55;232019;204;137125;-60
2024/02/14 19:19:19;;;;;;;27.40;13.00;;;;;;;8.58;53.21;99545.28;231892;198;151426;-61
2024/02/14 19:24:22;;;;;;;26.70;13.80;;;;;;;8.60;53.16;99544.13;232174;197;137633;-61
2024/02/14 19:29:26;;;;;;;24.50;13.70;;;;;;;8.59;53.04;99548.56;232252;201;137016;-61
2024/02/14 19:34:29;;;;;;;43.30;24.50;;;;;;;8.67;55.01;99552.13;232255;198;152646;-60
2024/02/14 19:39:33;;;;;;;28.20;14.00;;;;;;;8.84;53.27;99553.42;232320;204;137517;-60
2024/02/14 19:44:37;;;;;;;31.60;13.80;;;;;;;8.80;52.86;99558.42;231932;200;139559;-63
2024/02/14 19:49:41;;;;;;;25.80;14.10;;;;;;;8.72;53.10;99558.05;232279;200;151623;-66
2024/02/14 19:54:44;;;;;;;34.80;16.10;;;;;;;8.71;53.62;99559.90;231906;198;137094;-62
2024/02/14 19:59:47;;;;;;;29.90;15.30;;;;;;;8.72;53.22;99562.50;232301;204;138360;-69
2024/02/14 20:04:51;;;;;;;35.60;16.90;;;;;;;8.65;53.11;99557.31;232184;204;152257;-66
2024/02/14 20:09:55;;;;;;;38.10;18.20;;;;;;;8.61;53.22;99555.73;231860;204;137850;-66
2024/02/14 20:14:58;;;;;;;37.60;18.30;;;;;;;8.58;53.32;99548.98;232211;201;137108;-65
2024/02/14 20:20:06;;;;;;;47.40;19.10;;;;;;;8.52;53.39;99544.98;232035;197;152554;-64
2024/02/14 20:25:11;;;;;;;40.30;18.40;;;;;;;8.46;53.59;99553.92;231918;204;137143;-63
2024/02/14 20:30:16;;;;;;;74.80;38.20;;;;;;;8.46;54.23;99558.71;231897;197;137473;-63
2024/02/14 20:35:20;;;;;;;43.70;20.60;;;;;;;8.52;54.33;99557.39;231912;204;151959;-66
2024/02/14 20:40:24;;;;;;;48.30;20.80;;;;;;;8.49;54.13;99561.58;232036;199;137407;-63
2024/02/14 20:45:28;;;;;;;44.90;20.00;;;;;;;8.46;54.25;99561.55;231976;197;137189;-64
2024/02/14 20:50:31;;;;;;;50.90;21.00;;;;;;;8.44;55.14;99562.69;231963;201;151454;-65
2024/02/14 20:55:35;;;;;;;49.90;20.40;;;;;;;8.42;55.02;99560.30;231804;204;137018;-64
2024/02/14 21:00:39;;;;;;;47.90;20.30;;;;;;;8.37;55.49;99557.17;231840;198;137307;-63
2024/02/14 21:05:43;;;;;;;50.90;20.40;;;;;;;8.35;55.82;99552.48;232089;204;151996;-63
2024/02/14 21:10:46;;;;;;;50.80;20.60;;;;;;;8.27;55.42;99554.20;231920;201;137100;-62
2024/02/14 21:15:50;;;;;;;51.30;21.70;;;;;;;8.24;55.16;99548.00;232178;198;137217;-63
2024/02/14 21:20:53;;;;;;;49.40;23.60;;;;;;;8.25;55.30;99550.23;231999;200;151161;-63
2024/02/14 21:25:56;;;;;;;51.30;23.10;;;;;;;8.24;55.04;99545.33;231910;205;137551;-62
2024/02/14 21:30:59;;;;;;;49.00;22.70;;;;;;;8.23;55.78;99546.44;232006;198;137592;-63
2024/02/14 21:36:03;;;;;;;44.60;21.50;;;;;;;8.23;56.30;99548.39;232094;204;153314;-63
2024/02/14 21:41:06;;;;;;;55.10;22.90;;;;;;;8.23;56.38;99545.71;232086;198;137596;-62
2024/02/14 21:46:10;;;;;;;53.90;23.20;;;;;;;8.18;56.74;99540.48;232106;201;137650;-60
2024/02/14 21:51:16;;;;;;;55.00;24.60;;;;;;;8.18;56.45;99539.06;232002;199;152275;-62
2024/02/14 21:56:19;;;;;;;49.60;23.90;;;;;;;8.18;56.03;99540.80;232033;201;137589;-63
2024/02/14 22:01:23;;;;;;;52.40;23.40;;;;;;;8.19;56.43;99531.27;231913;198;136482;-59
2024/02/14 22:06:26;;;;;;;54.20;23.70;;;;;;;8.17;56.86;99532.21;232044;205;152770;-59
2024/02/14 22:11:30;;;;;;;52.30;22.70;;;;;;;8.14;57.18;99535.52;232150;204;138573;-59
2024/02/14 22:16:33;;;;;;;59.20;23.80;;;;;;;8.10;57.34;99537.66;232250;201;137420;-60
2024/02/14 22:21:37;;;;;;;60.10;23.30;;;;;;;8.03;57.23;99542.55;232108;204;151118;-60
2024/02/14 22:26:40;;;;;;;60.30;23.70;;;;;;;7.95;57.41;99541.50;232191;204;137865;-59
2024/02/14 22:31:45;;;;;;;56.30;23.90;;;;;;;7.90;57.86;99540.67;232006;198;137522;-59
2024/02/14 22:36:48;;;;;;;52.30;23.20;;;;;;;7.91;58.21;99546.80;232313;204;151971;-60
2024/02/14 22:41:52;;;;;;;55.60;24.50;;;;;;;7.89;58.33;99547.22;232050;204;137050;-60
2024/02/14 22:46:55;;;;;;;56.30;24.70;;;;;;;7.88;58.73;99551.51;232090;201;137677;-59
2024/02/14 22:51:59;;;;;;;49.00;23.50;;;;;;;7.88;58.82;99547.64;232208;202;151157;-59
2024/02/14 22:57:03;;;;;;;47.00;23.40;;;;;;;7.90;58.91;99547.38;232049;204;138129;-58
2024/02/14 23:02:08;;;;;;;49.60;23.40;;;;;;;7.88;58.88;99543.73;232182;201;137291;-59
2024/02/14 23:07:12;;;;;;;50.20;23.40;;;;;;;7.85;58.84;99549.70;232291;201;152069;-59
2024/02/14 23:12:17;;;;;;;47.10;24.10;;;;;;;7.82;58.83;99553.52;232021;197;137160;-61
2024/02/14 23:17:20;;;;;;;51.60;23.70;;;;;;;7.83;59.17;99552.23;232264;196;138603;-62
2024/02/14 23:22:24;;;;;;;55.90;24.50;;;;;;;7.88;58.94;99546.05;232378;204;151947;-62
2024/02/14 23:27:28;;;;;;;49.50;23.70;;;;;;;7.90;58.73;99551.59;232245;198;138251;-62